עמוד ראשי
METAR-TAF:

METAR-TAF

שדות תעופה :

נמל התעופה מדריד-בראחס

מדריד, ספרד

קו רוחב: 40-27N, קו אורך: 003-33W, גובה: 609מטר

תצפית מזג אוויר נוכחית

הדו"ח נערך לפני 53דקות, בשעה 13:00 UTC
רוח 4קשר מכיוון דרום/דרום-מערב עם משבים עד 14קשר
טמפרטורת 35 צלסיוס
לחות 23%
לחץ 1017 hPa
ראות 10 קילומטר או יותר
ללא עננים שבסיסם נמוך מ 5000 רגל או קומולונימבוס

METAR: LEMD 171300Z 21004G14KT CAVOK 35/11 Q1017 NOSIG

זמן: 15:53 (13:53 UTC)

תחזית

הדו"ח נערך לפני 21דקות, בשעה 13:32 UTC
תחזית בתוקף מ 17 ב 13 UTC עד 18 ב 18 UTC
רוח 10קשר מכיוון דרום-מערב
ראות 10 קילומטר או יותר
ללא עננים שבסיסם נמוך מ 5000 רגל או קומולונימבוס
הסתברות 40% :
זמנית מ -
17 ב 13 UTC עד 17 ב 16 UTC
רוח 15קשר מכיוון מערב/דרום-מערב עם משבים עד 25קשר
יעשה מ
17 ב 18 UTC עד 17 ב 20 UTC
רוח 4קשר עם כיוונים משתנים
יעשה מ
18 ב 12 UTC עד 18 ב 14 UTC
רוח 10קשר מכיוון דרום-מערב

TAF: LEMD 171332Z 1713/1818 22010KT CAVOK TX39/1715Z TN18/1806Z PROB40 TEMPO 1713/1716 24015G25KT BECMG 1718/1720 VRB04KT BECMG 1812/1814 23010KT

תצפיות ותחזיות מזג אוויר לגבי יותר מ- 4,000 שדות תעופה ברחבי העולם. דוחות METAR ו- TAF.

התחנות הזמינות מסומנות בנקודות צהובות ואדומות על גבי המפה.

העבר את העכבר לנקודה הצבעונית על מנת לראות את שם התחנה.

לאחר מכן, לחץ כדי לראות את תוכן ואת תחזיות מזג האוויר.

כדי לשנות את המפה: לחץ על הכפתורים הירוקים עם הפלוס השחור כדי להתקרב; על הכפתור הירוק עם המקף כדי להתרחק; או בחיצים הירוקים למפות סמוכות.


METAR-TAF: